ADDS METAR Data INFO
IDs: Format: Raw Decoded Include TAF

Data at: 1237 UTC 22 Feb 2018

PAOT 221234Z AUTO 17013KT 1 1/4SM -SN BR OVC014 M02/M02 A2966 RMK AO2 P0002 T10171022 TSNO $
PAOT 221204Z AUTO 15010KT 1SM R09/P6000FT -SN BR VV020 M02/M03 A2967 RMK AO2 P0000 T10221028 TSNO $
PAOT 221156Z AUTO 16011KT 2SM -SN BR OVC028 M02/M03 A2967 RMK AO2 P0000 T10221033 TSNO $
PAOT 221153Z AUTO 16012KT 3SM -SN BR OVC032 M02/M03 A2967 RMK AO2 SNB35 SLP048 P0000 60000 T10221033 11006 21022 TSNO $
PAOT 221130Z AUTO 16013KT 10SM SCT025 OVC045 M02/M03 A2968 RMK AO2 T10171033 TSNO $
PAOT 221116Z AUTO 16013KT 10SM BKN026 OVC060 M02/M03 A2968 RMK AO2 T10221033 TSNO $
PAOT 221053Z AUTO 15013KT 10SM BKN060 OVC080 M02/M03 A2969 RMK AO2 SLP053 T10221033 TSNO $
PAOT 220953Z AUTO 15014KT 10SM OVC070 M01/M02 A2970 RMK AO2 SLP056 T10111022 TSNO $
PAOT 220853Z 16013KT 10SM BKN035 OVC070 M01/M02 A2971 RMK SNE22 SLP060 P0000 60000 T10111022 410061061 56018 VIA AUTODIAL
PAOT 220821Z 16018KT 8SM -SN BKN034 BKN055 OVC070 M01/M02 A2972 RMK AO2 P0000 T10061017
PAOT 220814Z 15018KT 2 1/2SM -SN BR BKN030 BKN038 OVC070 M01/M02 A2972 RMK AO2 P0000 T10061017
PAOT 220800Z 16016KT 1 1/4SM -SN BR BKN025 OVC036 M01/M02 A2973 RMK AO2 P0000 T10061017
PAOT 220753Z 16019KT 2SM -SN BR BKN028 OVC048 M01/M02 A2973 RMK AO2 PK WND 16026/0738 SNB24 SLP068 P0000 T10061017
PAOT 220727Z 17018KT 2SM -SN BR BKN029 OVC048 M01/M02 A2974 RMK AO2 VIS 3/4V5 SNB24 P0000 T10061017
PAOT 220653Z 14014KT 10SM OVC050 M01/M02 A2974 RMK AO2 SLP070 T10111022
PAOT 220553Z 16015KT 10SM OVC055 M01/M02 A2976 RMK AO2 SLP078 T10111022 11011 21039 56030
PAOT 220453Z 13017KT 10SM FEW028 OVC050 M02/M03 A2978 RMK AO2 SLP085 T10171033
PAOT 220353Z 12017KT 10SM BKN046 OVC110 M02/M03 A2982 RMK AO2 SLP096 T10221033
PAOT 212353Z 12023KT 9SM OVC017 M03/M05 A2992 RMK AO2 PK WND 11030/2256 SNE43 SLP130 P0000 60000 I6000 T10331050 11033 21056 56022
PAOT 212348Z 12023KT 6SM BR OVC017 M04/M05 A2992 RMK AO2 PK WND 11030/2256 VIS 2 1/2 E SNE43 P0000
PAOT 212300Z 11025KT 1SM R09/P6000FT -SN BR OVC021 M04/M06 A2993 RMK AO2 PK WND 11030/2256 P0000 T10441056
PAOT 212253Z 11027KT 2SM -SN BR OVC021 M04/M06 A2994 RMK AO2 PK WND 11031/2251 SNB36 SLP138 P0000 I1000 T10441056
PAOT 212245Z 11026KT 1 3/4SM -SN BR OVC023 M04/M06 A2993 RMK AO2 PK WND 11030/2240 SNB36 PRESFR P0000 I1000 T10441061
PAOT 212220Z 11022KT 8SM BKN026 OVC036 M04/M06 A2997 RMK AO2 PK WND 12026/2213 T10441061
PAOT 212153Z 11020KT 10SM OVC035 M04/M07 A2998 RMK AO2 PK WND 11026/2100 SLP152 T10441067
PAOT 212053Z 11020KT 9SM FEW034 BKN043 OVC060 M04/M06 A3000 RMK AO2 UPB39E42SNE39 SLP160 P0000 60000 T10441061 58029
PAOT 212024Z 12019KT 3SM -SN BR BKN036 OVC060 M04/M06 A3002 RMK AO2 P0000 T10441061
PAOT 212002Z 13017KT 1 1/2SM -SN BR OVC032 M05/M07 A3005 RMK AO2 P0000 T10501067
PAOT 211953Z 12018KT 2 1/2SM -SN BR OVC036 M05/M07 A3005 RMK AO2 SNB49 SLP177 P0000 T10501067
PAOT 211853Z 10018KT 9SM BKN050 OVC080 M04/M07 A3008 RMK AO2 SLP184 T10441067
PAOT 211753Z 14014KT 10SM BKN060 BKN120 M06/M07 A3009 RMK AO2 SLP189 T10561072 11033 21061 56025
PAOT 211653Z 14015KT 10SM CLR M06/M08 A3011 RMK AO2 SLP197 T10611083
PAOT 211553Z 15014KT 10SM BKN055 M06/M08 A3013 RMK AO2 SLP204 T10561078
PAOT 211453Z AUTO 16010KT 10SM OVC055 M04/M06 A3016 RMK AO2 SLP214 T10391056 56010 TSNO
PAOT 211353Z AUTO 18010KT 10SM CLR M04/M06 A3017 RMK AO2 SLP217 T10391061 TSNO
PAOT 211253Z AUTO 19010KT 10SM CLR M04/M06 A3018 RMK AO2 SLP219 T10441061 TSNO
PAOT 210753Z 21017KT 10SM CLR M03/M06 A3016 RMK AO2 SLP211 T10331056
PAOT 210653Z 21015KT 10SM CLR M03/M06 A3015 RMK AO2 SLP210 T10331056
PAOT 210553Z 21017KT 10SM CLR M03/M05 A3013 RMK AO2 PK WND 22026/0508 SLP203 T10281050 11011 21028 53016